sensor_id;sensor_type;location;lat;lon;timestamp;pressure;altitude;pressure_sealevel;temperature;humidity
36630;BME280;36256;42.154;23.002;2022-10-23T00:01:11;97778.00;;;9.36;100.00
36630;BME280;36256;42.154;23.002;2022-10-23T00:03:37;97772.22;;;9.43;100.00
36630;BME280;36256;42.154;23.002;2022-10-23T00:06:04;97789.75;;;9.47;100.00
36630;BME280;36256;42.154;23.002;2022-10-23T00:08:31;97772.25;;;9.60;100.00
36630;BME280;36256;42.154;23.002;2022-10-23T00:10:57;97778.00;;;9.52;100.00
36630;BME280;36256;42.154;23.002;2022-10-23T00:13:24;97775.94;;;9.57;100.00
36630;BME280;36256;42.154;23.002;2022-10-23T00:15:51;97770.50;;;9.49;100.00
36630;BME280;36256;42.154;23.002;2022-10-23T00:18:22;97777.16;;;9.56;100.00
36630;BME280;36256;42.154;23.002;2022-10-23T00:20:49;97791.00;;;9.63;100.00
36630;BME280;36256;42.154;23.002;2022-10-23T00:23:16;97781.34;;;9.64;100.00
36630;BME280;36256;42.154;23.002;2022-10-23T00:25:42;97780.84;;;9.69;100.00
36630;BME280;36256;42.154;23.002;2022-10-23T00:28:09;97783.91;;;9.74;100.00
36630;BME280;36256;42.154;23.002;2022-10-23T00:30:36;97785.41;;;9.79;99.55
36630;BME280;36256;42.154;23.002;2022-10-23T00:33:02;97789.84;;;9.76;100.00
36630;BME280;36256;42.154;23.002;2022-10-23T00:35:29;97780.16;;;9.81;100.00
36630;BME280;36256;42.154;23.002;2022-10-23T00:37:55;97792.56;;;9.64;100.00
36630;BME280;36256;42.154;23.002;2022-10-23T00:40:22;97786.09;;;9.67;100.00
36630;BME280;36256;42.154;23.002;2022-10-23T00:42:48;97793.25;;;9.68;100.00
36630;BME280;36256;42.154;23.002;2022-10-23T00:45:25;97790.81;;;9.70;100.00
36630;BME280;36256;42.154;23.002;2022-10-23T00:47:53;97793.97;;;9.56;100.00
36630;BME280;36256;42.154;23.002;2022-10-23T00:50:22;97773.53;;;9.39;100.00
36630;BME280;36256;42.154;23.002;2022-10-23T00:52:50;97777.72;;;9.31;100.00
36630;BME280;36256;42.154;23.002;2022-10-23T00:55:19;97773.19;;;9.37;100.00
36630;BME280;36256;42.154;23.002;2022-10-23T00:57:48;97779.50;;;9.41;100.00
36630;BME280;36256;42.154;23.002;2022-10-23T01:00:27;97772.41;;;9.52;100.00
36630;BME280;36256;42.154;23.002;2022-10-23T01:02:55;97772.06;;;9.50;100.00
36630;BME280;36256;42.154;23.002;2022-10-23T01:05:40;97784.94;;;9.64;100.00
36630;BME280;36256;42.154;23.002;2022-10-23T01:08:19;97786.16;;;9.63;100.00
36630;BME280;36256;42.154;23.002;2022-10-23T01:10:56;97799.66;;;9.68;100.00
36630;BME280;36256;42.154;23.002;2022-10-23T01:13:30;97797.31;;;9.67;100.00
36630;BME280;36256;42.154;23.002;2022-10-23T01:16:15;97794.16;;;9.65;100.00
36630;BME280;36256;42.154;23.002;2022-10-23T01:19:19;97780.66;;;9.60;100.00
36630;BME280;36256;42.154;23.002;2022-10-23T01:22:10;97786.25;;;9.60;100.00
36630;BME280;36256;42.154;23.002;2022-10-23T01:24:57;97788.56;;;9.65;100.00
36630;BME280;36256;42.154;23.002;2022-10-23T01:27:44;97800.38;;;9.72;100.00
36630;BME280;36256;42.154;23.002;2022-10-23T01:30:15;97805.38;;;9.65;100.00
36630;BME280;36256;42.154;23.002;2022-10-23T01:32:54;97798.88;;;9.68;100.00
36630;BME280;36256;42.154;23.002;2022-10-23T01:35:26;97800.47;;;9.69;100.00
36630;BME280;36256;42.154;23.002;2022-10-23T01:38:05;97802.03;;;9.70;100.00
36630;BME280;36256;42.154;23.002;2022-10-23T01:40:37;97803.06;;;9.76;100.00
36630;BME280;36256;42.154;23.002;2022-10-23T01:43:12;97804.47;;;9.68;100.00
36630;BME280;36256;42.154;23.002;2022-10-23T01:45:44;97794.31;;;9.58;100.00
36630;BME280;36256;42.154;23.002;2022-10-23T01:48:15;97788.09;;;9.66;100.00
36630;BME280;36256;42.154;23.002;2022-10-23T01:50:43;97789.75;;;9.64;100.00
36630;BME280;36256;42.154;23.002;2022-10-23T01:53:11;97790.31;;;9.75;100.00
36630;BME280;36256;42.154;23.002;2022-10-23T01:55:39;97801.31;;;9.66;100.00
36630;BME280;36256;42.154;23.002;2022-10-23T01:58:14;97805.53;;;9.74;100.00
36630;BME280;36256;42.154;23.002;2022-10-23T02:00:43;97809.13;;;9.74;100.00
36630;BME280;36256;42.154;23.002;2022-10-23T02:03:12;97804.75;;;9.73;100.00
36630;BME280;36256;42.154;23.002;2022-10-23T02:05:42;97807.13;;;9.75;100.00
36630;BME280;36256;42.154;23.002;2022-10-23T02:08:09;97807.09;;;9.59;100.00
36630;BME280;36256;42.154;23.002;2022-10-23T02:10:44;97801.56;;;9.55;100.00
36630;BME280;36256;42.154;23.002;2022-10-23T02:16:17;97809.97;;;9.55;100.00
36630;BME280;36256;42.154;23.002;2022-10-23T02:24:40;97802.38;;;9.56;100.00
36630;BME280;36256;42.154;23.002;2022-10-23T02:27:15;97797.09;;;9.58;100.00
36630;BME280;36256;42.154;23.002;2022-10-23T02:29:47;97794.56;;;9.63;100.00
36630;BME280;36256;42.154;23.002;2022-10-23T02:32:18;97779.94;;;9.56;100.00
36630;BME280;36256;42.154;23.002;2022-10-23T02:34:46;97791.59;;;9.70;100.00
36630;BME280;36256;42.154;23.002;2022-10-23T02:37:13;97798.00;;;9.71;100.00
36630;BME280;36256;42.154;23.002;2022-10-23T02:39:40;97794.47;;;9.50;100.00
36630;BME280;36256;42.154;23.002;2022-10-23T02:47:34;97807.97;;;9.20;100.00
36630;BME280;36256;42.154;23.002;2022-10-23T02:52:38;97807.72;;;9.30;100.00
36630;BME280;36256;42.154;23.002;2022-10-23T02:57:53;97820.72;;;9.40;100.00
36630;BME280;36256;42.154;23.002;2022-10-23T03:00:21;97811.25;;;9.34;100.00
36630;BME280;36256;42.154;23.002;2022-10-23T03:03:01;97829.19;;;9.37;100.00
36630;BME280;36256;42.154;23.002;2022-10-23T03:05:33;97829.91;;;9.41;100.00
36630;BME280;36256;42.154;23.002;2022-10-23T03:08:03;97836.31;;;9.41;100.00
36630;BME280;36256;42.154;23.002;2022-10-23T03:10:30;97836.88;;;9.33;100.00
36630;BME280;36256;42.154;23.002;2022-10-23T03:12:57;97825.81;;;9.26;100.00
36630;BME280;36256;42.154;23.002;2022-10-23T03:15:24;97847.66;;;9.34;100.00
36630;BME280;36256;42.154;23.002;2022-10-23T03:17:50;97851.53;;;9.40;100.00
36630;BME280;36256;42.154;23.002;2022-10-23T03:20:17;97846.50;;;9.32;100.00
36630;BME280;36256;42.154;23.002;2022-10-23T03:22:44;97849.75;;;9.30;100.00
36630;BME280;36256;42.154;23.002;2022-10-23T03:25:11;97848.66;;;9.24;100.00
36630;BME280;36256;42.154;23.002;2022-10-23T03:27:38;97856.72;;;9.22;100.00
36630;BME280;36256;42.154;23.002;2022-10-23T03:30:05;97853.69;;;9.13;100.00
36630;BME280;36256;42.154;23.002;2022-10-23T03:32:32;97854.19;;;9.08;100.00
36630;BME280;36256;42.154;23.002;2022-10-23T03:34:59;97854.53;;;9.10;100.00
36630;BME280;36256;42.154;23.002;2022-10-23T03:37:25;97835.97;;;9.00;100.00
36630;BME280;36256;42.154;23.002;2022-10-23T03:39:52;97849.81;;;9.07;100.00
36630;BME280;36256;42.154;23.002;2022-10-23T03:42:18;97848.59;;;9.08;100.00
36630;BME280;36256;42.154;23.002;2022-10-23T03:44:45;97845.66;;;9.15;100.00
36630;BME280;36256;42.154;23.002;2022-10-23T03:47:12;97840.75;;;9.19;100.00
36630;BME280;36256;42.154;23.002;2022-10-23T03:49:38;97844.13;;;9.30;100.00
36630;BME280;36256;42.154;23.002;2022-10-23T03:52:06;97836.59;;;9.27;100.00
36630;BME280;36256;42.154;23.002;2022-10-23T03:54:33;97839.56;;;9.20;100.00
36630;BME280;36256;42.154;23.002;2022-10-23T03:57:00;97842.72;;;9.03;100.00
36630;BME280;36256;42.154;23.002;2022-10-23T03:59:27;97845.59;;;8.99;100.00
36630;BME280;36256;42.154;23.002;2022-10-23T04:01:53;97847.16;;;9.00;100.00
36630;BME280;36256;42.154;23.002;2022-10-23T04:04:20;97862.75;;;9.01;100.00
36630;BME280;36256;42.154;23.002;2022-10-23T04:06:47;97869.84;;;8.86;100.00
36630;BME280;36256;42.154;23.002;2022-10-23T04:09:14;97881.75;;;8.90;100.00
36630;BME280;36256;42.154;23.002;2022-10-23T04:11:41;97886.25;;;8.84;100.00
36630;BME280;36256;42.154;23.002;2022-10-23T04:14:10;97880.06;;;8.73;100.00
36630;BME280;36256;42.154;23.002;2022-10-23T04:16:37;97878.16;;;8.70;100.00
36630;BME280;36256;42.154;23.002;2022-10-23T04:19:04;97881.94;;;8.80;100.00
36630;BME280;36256;42.154;23.002;2022-10-23T04:21:31;97879.06;;;8.83;100.00
36630;BME280;36256;42.154;23.002;2022-10-23T04:23:57;97872.75;;;8.79;100.00
36630;BME280;36256;42.154;23.002;2022-10-23T04:26:24;97876.91;;;8.71;100.00
36630;BME280;36256;42.154;23.002;2022-10-23T04:28:50;97871.75;;;8.69;100.00
36630;BME280;36256;42.154;23.002;2022-10-23T04:31:18;97884.09;;;8.72;100.00
36630;BME280;36256;42.154;23.002;2022-10-23T04:33:44;97887.25;;;8.74;100.00
36630;BME280;36256;42.154;23.002;2022-10-23T04:36:11;97887.63;;;8.76;100.00
36630;BME280;36256;42.154;23.002;2022-10-23T04:38:38;97891.34;;;8.69;100.00
36630;BME280;36256;42.154;23.002;2022-10-23T04:41:04;97892.13;;;8.70;100.00
36630;BME280;36256;42.154;23.002;2022-10-23T04:43:31;97889.34;;;8.70;100.00
36630;BME280;36256;42.154;23.002;2022-10-23T04:45:58;97883.97;;;8.56;100.00
36630;BME280;36256;42.154;23.002;2022-10-23T04:48:24;97894.50;;;8.48;100.00
36630;BME280;36256;42.154;23.002;2022-10-23T04:50:56;97889.72;;;8.22;100.00
36630;BME280;36256;42.154;23.002;2022-10-23T04:53:23;97893.91;;;8.11;100.00
36630;BME280;36256;42.154;23.002;2022-10-23T04:55:50;97891.22;;;8.04;100.00
36630;BME280;36256;42.154;23.002;2022-10-23T04:58:17;97889.63;;;8.03;100.00
36630;BME280;36256;42.154;23.002;2022-10-23T05:00:45;97894.66;;;8.15;100.00
36630;BME280;36256;42.154;23.002;2022-10-23T05:03:12;97896.88;;;8.27;100.00
36630;BME280;36256;42.154;23.002;2022-10-23T05:05:39;97891.28;;;8.27;100.00
36630;BME280;36256;42.154;23.002;2022-10-23T05:08:06;97895.16;;;8.33;100.00
36630;BME280;36256;42.154;23.002;2022-10-23T05:10:33;97882.81;;;8.30;100.00
36630;BME280;36256;42.154;23.002;2022-10-23T05:13:00;97895.53;;;8.58;100.00
36630;BME280;36256;42.154;23.002;2022-10-23T05:15:26;97890.06;;;8.74;100.00
36630;BME280;36256;42.154;23.002;2022-10-23T05:17:56;97891.06;;;8.84;100.00
36630;BME280;36256;42.154;23.002;2022-10-23T05:20:28;97893.31;;;8.92;100.00
36630;BME280;36256;42.154;23.002;2022-10-23T05:22:58;97895.75;;;8.90;100.00
36630;BME280;36256;42.154;23.002;2022-10-23T05:25:25;97895.75;;;8.90;100.00
36630;BME280;36256;42.154;23.002;2022-10-23T05:27:52;97907.06;;;8.83;100.00
36630;BME280;36256;42.154;23.002;2022-10-23T05:30:18;97908.78;;;8.77;100.00
36630;BME280;36256;42.154;23.002;2022-10-23T05:32:45;97914.53;;;8.70;100.00
36630;BME280;36256;42.154;23.002;2022-10-23T05:35:16;97932.97;;;8.64;100.00
36630;BME280;36256;42.154;23.002;2022-10-23T05:37:45;97927.38;;;8.41;100.00
36630;BME280;36256;42.154;23.002;2022-10-23T05:40:13;97938.19;;;8.39;100.00
36630;BME280;36256;42.154;23.002;2022-10-23T05:42:39;97942.09;;;8.45;100.00
36630;BME280;36256;42.154;23.002;2022-10-23T05:45:07;97933.34;;;8.43;100.00
36630;BME280;36256;42.154;23.002;2022-10-23T05:47:34;97942.72;;;8.56;100.00
36630;BME280;36256;42.154;23.002;2022-10-23T05:50:01;97952.94;;;8.66;100.00
36630;BME280;36256;42.154;23.002;2022-10-23T05:52:27;97946.00;;;8.97;100.00
36630;BME280;36256;42.154;23.002;2022-10-23T05:54:54;97955.22;;;9.17;100.00
36630;BME280;36256;42.154;23.002;2022-10-23T05:57:20;97952.44;;;9.57;100.00
36630;BME280;36256;42.154;23.002;2022-10-23T05:59:47;97951.94;;;9.97;100.00
36630;BME280;36256;42.154;23.002;2022-10-23T06:02:13;97952.13;;;10.26;98.60
36630;BME280;36256;42.154;23.002;2022-10-23T06:04:40;97956.53;;;10.59;97.07
36630;BME280;36256;42.154;23.002;2022-10-23T06:07:07;97956.19;;;10.89;95.21
36630;BME280;36256;42.154;23.002;2022-10-23T06:09:33;97957.69;;;11.23;93.67
36630;BME280;36256;42.154;23.002;2022-10-23T06:12:01;97963.22;;;11.55;92.64
36630;BME280;36256;42.154;23.002;2022-10-23T06:14:28;97978.22;;;11.93;90.86
36630;BME280;36256;42.154;23.002;2022-10-23T06:16:54;97982.97;;;12.09;90.27
36630;BME280;36256;42.154;23.002;2022-10-23T06:19:21;97981.41;;;12.20;90.12
36630;BME280;36256;42.154;23.002;2022-10-23T06:21:47;97979.03;;;12.31;89.35
36630;BME280;36256;42.154;23.002;2022-10-23T06:24:14;97977.78;;;12.83;87.48
36630;BME280;36256;42.154;23.002;2022-10-23T06:26:40;97974.56;;;13.31;84.54
36630;BME280;36256;42.154;23.002;2022-10-23T06:29:07;97976.41;;;13.47;84.10
36630;BME280;36256;42.154;23.002;2022-10-23T06:31:33;97977.03;;;13.29;84.58
36630;BME280;36256;42.154;23.002;2022-10-23T06:34:00;97988.88;;;13.58;83.15
36630;BME280;36256;42.154;23.002;2022-10-23T06:36:27;97986.81;;;13.93;81.51
36630;BME280;36256;42.154;23.002;2022-10-23T06:38:53;97989.50;;;14.49;79.13
36630;BME280;36256;42.154;23.002;2022-10-23T06:41:22;97992.19;;;14.52;77.54
36630;BME280;36256;42.154;23.002;2022-10-23T06:43:49;97990.72;;;14.69;77.68
36630;BME280;36256;42.154;23.002;2022-10-23T06:46:17;98007.53;;;14.82;76.22
36630;BME280;36256;42.154;23.002;2022-10-23T06:48:44;98005.94;;;14.41;77.83
36630;BME280;36256;42.154;23.002;2022-10-23T06:51:12;98010.91;;;14.59;77.83
36630;BME280;36256;42.154;23.002;2022-10-23T06:53:39;98007.56;;;14.91;76.16
36630;BME280;36256;42.154;23.002;2022-10-23T06:56:07;98009.06;;;15.23;74.13
36630;BME280;36256;42.154;23.002;2022-10-23T06:58:36;97999.84;;;15.40;73.25
36630;BME280;36256;42.154;23.002;2022-10-23T07:01:05;98008.69;;;15.51;72.73
36630;BME280;36256;42.154;23.002;2022-10-23T07:03:33;97998.63;;;15.59;72.80
36630;BME280;36256;42.154;23.002;2022-10-23T07:06:04;97995.78;;;15.78;72.46
36630;BME280;36256;42.154;23.002;2022-10-23T07:08:32;97996.44;;;15.82;71.61
36630;BME280;36256;42.154;23.002;2022-10-23T07:11:06;97999.41;;;15.60;71.76
36630;BME280;36256;42.154;23.002;2022-10-23T07:13:35;98002.38;;;15.47;72.16
36630;BME280;36256;42.154;23.002;2022-10-23T07:16:16;98011.81;;;15.53;73.32
36630;BME280;36256;42.154;23.002;2022-10-23T07:18:44;98010.56;;;16.00;71.88
36630;BME280;36256;42.154;23.002;2022-10-23T07:21:11;97997.59;;;16.53;68.89
36630;BME280;36256;42.154;23.002;2022-10-23T07:23:38;98008.16;;;16.85;68.00
36630;BME280;36256;42.154;23.002;2022-10-23T07:26:10;98003.44;;;16.82;67.40
36630;BME280;36256;42.154;23.002;2022-10-23T07:28:40;98005.69;;;16.69;68.32
36630;BME280;36256;42.154;23.002;2022-10-23T07:31:07;98009.81;;;17.01;65.85
36630;BME280;36256;42.154;23.002;2022-10-23T07:33:33;98002.28;;;17.21;64.76
36630;BME280;36256;42.154;23.002;2022-10-23T07:36:02;98004.13;;;17.57;64.92
36630;BME280;36256;42.154;23.002;2022-10-23T07:38:28;97995.16;;;17.97;62.68
36630;BME280;36256;42.154;23.002;2022-10-23T07:40:56;97996.84;;;18.18;60.84
36630;BME280;36256;42.154;23.002;2022-10-23T07:43:24;97989.75;;;18.52;59.69
36630;BME280;36256;42.154;23.002;2022-10-23T07:45:52;97987.50;;;18.91;58.96
36630;BME280;36256;42.154;23.002;2022-10-23T07:48:19;97987.44;;;19.34;56.88
36630;BME280;36256;42.154;23.002;2022-10-23T07:50:47;97980.66;;;19.52;56.87
36630;BME280;36256;42.154;23.002;2022-10-23T07:53:16;97976.66;;;19.64;56.23
36630;BME280;36256;42.154;23.002;2022-10-23T07:55:51;97970.84;;;19.53;55.91
36630;BME280;36256;42.154;23.002;2022-10-23T07:58:19;97968.56;;;19.77;54.83
36630;BME280;36256;42.154;23.002;2022-10-23T08:00:56;97972.72;;;20.22;54.56
36630;BME280;36256;42.154;23.002;2022-10-23T08:03:25;97969.66;;;20.88;53.54
36630;BME280;36256;42.154;23.002;2022-10-23T08:05:53;97954.53;;;21.55;51.83
36630;BME280;36256;42.154;23.002;2022-10-23T08:08:21;97952.47;;;22.31;49.47
36630;BME280;36256;42.154;23.002;2022-10-23T08:10:49;97946.50;;;22.46;48.47
36630;BME280;36256;42.154;23.002;2022-10-23T08:13:16;97942.59;;;23.04;47.74
36630;BME280;36256;42.154;23.002;2022-10-23T08:15:46;97933.06;;;24.22;45.37
36630;BME280;36256;42.154;23.002;2022-10-23T08:18:14;97937.44;;;24.99;43.01
36630;BME280;36256;42.154;23.002;2022-10-23T08:20:41;97935.59;;;25.93;41.15
36630;BME280;36256;42.154;23.002;2022-10-23T08:23:09;97925.16;;;25.71;41.59
36630;BME280;36256;42.154;23.002;2022-10-23T08:25:38;97925.59;;;25.99;41.13
36630;BME280;36256;42.154;23.002;2022-10-23T08:28:06;97921.34;;;26.75;39.86
36630;BME280;36256;42.154;23.002;2022-10-23T08:30:33;97949.88;;;26.22;41.07
36630;BME280;36256;42.154;23.002;2022-10-23T08:33:05;97946.75;;;26.20;41.29
36630;BME280;36256;42.154;23.002;2022-10-23T08:35:36;97940.06;;;27.13;39.36
36630;BME280;36256;42.154;23.002;2022-10-23T08:38:04;97947.00;;;27.62;38.31
36630;BME280;36256;42.154;23.002;2022-10-23T08:40:31;97944.31;;;28.17;37.49
36630;BME280;36256;42.154;23.002;2022-10-23T08:48:26;97969.13;;;29.41;34.55
36630;BME280;36256;42.154;23.002;2022-10-23T08:50:59;97968.53;;;28.81;35.85
36630;BME280;36256;42.154;23.002;2022-10-23T08:53:32;97972.22;;;30.36;34.04
36630;BME280;36256;42.154;23.002;2022-10-23T08:56:05;97975.72;;;31.98;31.24
36630;BME280;36256;42.154;23.002;2022-10-23T09:01:09;97972.22;;;30.86;32.70
36630;BME280;36256;42.154;23.002;2022-10-23T09:03:43;97973.78;;;31.02;32.13
36630;BME280;36256;42.154;23.002;2022-10-23T09:06:32;97976.59;;;32.23;30.60
36630;BME280;36256;42.154;23.002;2022-10-23T09:12:12;97955.44;;;30.34;32.93
36630;BME280;36256;42.154;23.002;2022-10-23T09:17:57;97957.41;;;27.91;36.21
36630;BME280;36256;42.154;23.002;2022-10-23T09:20:29;97960.41;;;27.60;37.48
36630;BME280;36256;42.154;23.002;2022-10-23T09:23:00;97953.41;;;26.47;38.44
36630;BME280;36256;42.154;23.002;2022-10-23T09:25:30;97957.38;;;25.88;40.32
36630;BME280;36256;42.154;23.002;2022-10-23T09:28:00;97943.28;;;25.66;41.53
36630;BME280;36256;42.154;23.002;2022-10-23T09:30:40;97947.09;;;25.26;41.89
36630;BME280;36256;42.154;23.002;2022-10-23T09:33:19;97948.50;;;25.14;40.29
36630;BME280;36256;42.154;23.002;2022-10-23T09:35:56;97942.50;;;24.87;42.86
36630;BME280;36256;42.154;23.002;2022-10-23T09:38:37;97947.53;;;24.81;43.33
36630;BME280;36256;42.154;23.002;2022-10-23T09:41:16;97953.38;;;24.94;41.11
36630;BME280;36256;42.154;23.002;2022-10-23T09:43:45;97930.88;;;24.69;43.73
36630;BME280;36256;42.154;23.002;2022-10-23T09:46:11;97932.81;;;24.55;41.78
36630;BME280;36256;42.154;23.002;2022-10-23T09:48:39;97940.22;;;24.45;44.57
36630;BME280;36256;42.154;23.002;2022-10-23T09:51:20;97932.00;;;24.60;45.25
36630;BME280;36256;42.154;23.002;2022-10-23T09:53:50;97924.13;;;24.66;43.15
36630;BME280;36256;42.154;23.002;2022-10-23T09:59:00;97918.06;;;24.75;44.60
36630;BME280;36256;42.154;23.002;2022-10-23T10:01:33;97908.63;;;24.80;45.60
36630;BME280;36256;42.154;23.002;2022-10-23T10:04:01;97894.22;;;24.86;45.04
36630;BME280;36256;42.154;23.002;2022-10-23T10:06:32;97901.84;;;24.83;42.30
36630;BME280;36256;42.154;23.002;2022-10-23T10:09:04;97897.94;;;24.81;41.23
36630;BME280;36256;42.154;23.002;2022-10-23T10:11:38;97907.69;;;24.97;43.23
36630;BME280;36256;42.154;23.002;2022-10-23T10:19:55;97888.91;;;24.96;42.37
36630;BME280;36256;42.154;23.002;2022-10-23T10:25:43;97885.91;;;25.31;44.00
36630;BME280;36256;42.154;23.002;2022-10-23T10:31:00;97869.22;;;25.05;42.16
36630;BME280;36256;42.154;23.002;2022-10-23T10:36:33;97869.66;;;24.90;42.04
36630;BME280;36256;42.154;23.002;2022-10-23T10:47:08;97856.31;;;25.17;43.12
36630;BME280;36256;42.154;23.002;2022-10-23T10:57:50;97838.84;;;25.58;45.34
36630;BME280;36256;42.154;23.002;2022-10-23T11:00:22;97828.31;;;25.66;41.39
36630;BME280;36256;42.154;23.002;2022-10-23T11:02:59;97830.91;;;25.64;42.52
36630;BME280;36256;42.154;23.002;2022-10-23T11:05:31;97840.88;;;25.63;40.67
36630;BME280;36256;42.154;23.002;2022-10-23T11:08:04;97839.16;;;25.73;44.39
36630;BME280;36256;42.154;23.002;2022-10-23T11:10:33;97841.56;;;25.88;40.41
36630;BME280;36256;42.154;23.002;2022-10-23T11:13:01;97835.28;;;25.89;42.05
36630;BME280;36256;42.154;23.002;2022-10-23T11:15:38;97831.53;;;25.94;42.15
36630;BME280;36256;42.154;23.002;2022-10-23T11:18:14;97823.47;;;25.93;41.02
36630;BME280;36256;42.154;23.002;2022-10-23T11:37:21;97792.56;;;25.80;41.47
36630;BME280;36256;42.154;23.002;2022-10-23T11:42:44;97780.88;;;25.91;40.70
36630;BME280;36256;42.154;23.002;2022-10-23T11:47:58;97776.16;;;26.07;39.74
36630;BME280;36256;42.154;23.002;2022-10-23T11:50:28;97774.78;;;26.13;41.80
36630;BME280;36256;42.154;23.002;2022-10-23T11:56:00;97755.50;;;26.08;39.33
36630;BME280;36256;42.154;23.002;2022-10-23T11:58:55;97748.28;;;26.20;41.22
36630;BME280;36256;42.154;23.002;2022-10-23T12:01:42;97751.16;;;26.20;40.71
36630;BME280;36256;42.154;23.002;2022-10-23T12:06:43;97740.97;;;26.32;39.52
36630;BME280;36256;42.154;23.002;2022-10-23T12:09:44;97742.56;;;26.33;40.15
36630;BME280;36256;42.154;23.002;2022-10-23T12:12:15;97742.56;;;26.33;38.68
36630;BME280;36256;42.154;23.002;2022-10-23T12:14:49;97732.78;;;26.23;41.23
36630;BME280;36256;42.154;23.002;2022-10-23T12:19:54;97725.78;;;26.19;42.23
36630;BME280;36256;42.154;23.002;2022-10-23T12:22:23;97716.63;;;26.20;42.33
36630;BME280;36256;42.154;23.002;2022-10-23T12:25:04;97711.50;;;26.13;40.89
36630;BME280;36256;42.154;23.002;2022-10-23T12:27:48;97713.69;;;26.07;41.18
36630;BME280;36256;42.154;23.002;2022-10-23T12:30:19;97714.31;;;26.00;40.95
36630;BME280;36256;42.154;23.002;2022-10-23T12:38:17;97707.31;;;26.14;39.96
36630;BME280;36256;42.154;23.002;2022-10-23T12:40:51;97709.97;;;26.25;38.55
36630;BME280;36256;42.154;23.002;2022-10-23T12:43:30;97705.13;;;26.20;37.95
36630;BME280;36256;42.154;23.002;2022-10-23T12:48:51;97706.66;;;26.21;38.39
36630;BME280;36256;42.154;23.002;2022-10-23T12:51:22;97715.50;;;26.23;40.31
36630;BME280;36256;42.154;23.002;2022-10-23T12:53:50;97717.25;;;26.13;41.75
36630;BME280;36256;42.154;23.002;2022-10-23T12:56:17;97714.31;;;26.00;41.11
36630;BME280;36256;42.154;23.002;2022-10-23T12:58:48;97697.06;;;26.00;40.55
36630;BME280;36256;42.154;23.002;2022-10-23T13:01:42;97686.88;;;25.86;41.33
36630;BME280;36256;42.154;23.002;2022-10-23T13:06:37;97704.09;;;25.86;41.44
36630;BME280;36256;42.154;23.002;2022-10-23T13:09:09;97705.66;;;25.87;41.83
36630;BME280;36256;42.154;23.002;2022-10-23T13:11:41;97703.22;;;25.78;41.40
36630;BME280;36256;42.154;23.002;2022-10-23T13:14:27;97700.91;;;25.58;41.32
36630;BME280;36256;42.154;23.002;2022-10-23T13:17:04;97707.13;;;25.43;41.27
36630;BME280;36256;42.154;23.002;2022-10-23T13:19:32;97701.69;;;25.40;42.95
36630;BME280;36256;42.154;23.002;2022-10-23T13:21:59;97702.53;;;25.35;42.07
36630;BME280;36256;42.154;23.002;2022-10-23T13:24:29;97688.16;;;25.35;43.11
36630;BME280;36256;42.154;23.002;2022-10-23T13:26:57;97691.81;;;25.35;42.21
36630;BME280;36256;42.154;23.002;2022-10-23T13:31:56;97704.19;;;25.49;39.43
36630;BME280;36256;42.154;23.002;2022-10-23T13:34:25;97699.44;;;25.51;38.76
36630;BME280;36256;42.154;23.002;2022-10-23T13:39:32;97698.13;;;25.34;38.20
36630;BME280;36256;42.154;23.002;2022-10-23T13:42:04;97701.59;;;25.27;38.18
36630;BME280;36256;42.154;23.002;2022-10-23T13:44:35;97695.63;;;25.25;38.54
36630;BME280;36256;42.154;23.002;2022-10-23T13:47:03;97704.16;;;25.12;40.47
36630;BME280;36256;42.154;23.002;2022-10-23T13:49:30;97705.88;;;25.02;38.73
36630;BME280;36256;42.154;23.002;2022-10-23T13:52:00;97702.44;;;24.84;38.71
36630;BME280;36256;42.154;23.002;2022-10-23T13:54:27;97707.81;;;24.93;38.38
36630;BME280;36256;42.154;23.002;2022-10-23T13:56:55;97703.69;;;24.89;37.87
36630;BME280;36256;42.154;23.002;2022-10-23T13:59:22;97714.38;;;24.88;38.46
36630;BME280;36256;42.154;23.002;2022-10-23T14:01:49;97702.63;;;24.92;37.75
36630;BME280;36256;42.154;23.002;2022-10-23T14:04:17;97715.50;;;24.85;40.94
36630;BME280;36256;42.154;23.002;2022-10-23T14:06:44;97717.34;;;24.83;40.29
36630;BME280;36256;42.154;23.002;2022-10-23T14:09:16;97715.50;;;24.85;39.56
36630;BME280;36256;42.154;23.002;2022-10-23T14:11:43;97723.09;;;24.83;40.11
36630;BME280;36256;42.154;23.002;2022-10-23T14:14:10;97719.75;;;24.73;40.30
36630;BME280;36256;42.154;23.002;2022-10-23T14:16:36;97715.13;;;24.70;39.97
36630;BME280;36256;42.154;23.002;2022-10-23T14:19:03;97717.03;;;24.62;38.75
36630;BME280;36256;42.154;23.002;2022-10-23T14:21:29;97715.34;;;24.48;40.10
36630;BME280;36256;42.154;23.002;2022-10-23T14:23:56;97717.97;;;24.46;38.53
36630;BME280;36256;42.154;23.002;2022-10-23T14:26:25;97714.88;;;24.44;41.58
36630;BME280;36256;42.154;23.002;2022-10-23T14:28:54;97716.91;;;24.49;40.01
36630;BME280;36256;42.154;23.002;2022-10-23T14:31:22;97717.03;;;24.38;43.27
36630;BME280;36256;42.154;23.002;2022-10-23T14:33:54;97718.72;;;24.28;45.15
36630;BME280;36256;42.154;23.002;2022-10-23T14:36:21;97726.22;;;24.07;46.14
36630;BME280;36256;42.154;23.002;2022-10-23T14:38:48;97724.03;;;23.83;42.94
36630;BME280;36256;42.154;23.002;2022-10-23T14:41:20;97725.69;;;23.73;46.01
36630;BME280;36256;42.154;23.002;2022-10-23T14:43:47;97738.28;;;23.59;47.54
36630;BME280;36256;42.154;23.002;2022-10-23T14:46:15;97728.81;;;23.34;47.86
36630;BME280;36256;42.154;23.002;2022-10-23T14:48:43;97725.81;;;23.10;48.54
36630;BME280;36256;42.154;23.002;2022-10-23T14:51:16;97733.38;;;23.02;47.93
36630;BME280;36256;42.154;23.002;2022-10-23T14:53:43;97733.63;;;23.04;48.30
36630;BME280;36256;42.154;23.002;2022-10-23T14:56:10;97735.72;;;23.04;50.33
36630;BME280;36256;42.154;23.002;2022-10-23T14:58:37;97730.84;;;22.88;50.08